| time (UTC) | temp C | wind direction | speed KPH | gust KPH | rain 1hr cm | rain 24hr cm | rain mn cm | humidity % | barometer mb |
| 20260504234122 | 26 | 189 | 8.0 | 14.5 | 0.00 | 0.43 | 0.43 | 52 | 988.8 |
| 20260504233126 | 26 | 176 | 8.0 | 12.9 | 0.00 | 0.43 | 0.43 | 54 | 988.9 |
| 20260504232122 | 25 | 170 | 8.0 | 16.1 | 0.00 | 0.43 | 0.43 | 55 | 988.9 |
| 20260504231122 | 25 | 181 | 8.0 | 14.5 | 0.00 | 0.43 | 0.43 | 55 | 989.2 |
| 20260504230124 | 25 | 171 | 8.0 | 12.9 | 0.00 | 0.43 | 0.43 | 55 | 989.2 |
| 20260504225143 | 25 | 182 | 8.0 | 12.9 | 0.00 | 0.43 | 0.43 | 54 | 989.6 |
| 20260504224125 | 25 | 178 | 8.0 | 12.9 | 0.00 | 0.43 | 0.43 | 54 | 989.8 |
| 20260504223122 | 25 | 177 | 8.0 | 14.5 | 0.00 | 0.43 | 0.43 | 54 | 989.9 |
| 20260504222143 | 25 | 177 | 9.7 | 16.1 | 0.00 | 0.43 | 0.43 | 53 | 989.9 |
| 20260504221130 | 25 | 173 | 6.4 | 11.3 | 0.00 | 0.43 | 0.43 | 52 | 990.0 |
| 20260504220143 | 25 | 167 | 9.7 | 16.1 | 0.00 | 0.43 | 0.43 | 51 | 990.0 |
| 20260504215128 | 25 | 159 | 9.7 | 16.1 | 0.00 | 0.43 | 0.43 | 51 | 990.0 |
| 20260504214143 | 26 | 171 | 9.7 | 16.1 | 0.00 | 0.43 | 0.43 | 52 | 990.0 |
| 20260504213123 | 25 | 158 | 11.3 | 19.3 | 0.00 | 0.43 | 0.43 | 52 | 990.2 |
| 20260504212122 | 25 | 167 | 11.3 | 17.7 | 0.00 | 0.43 | 0.43 | 52 | 990.2 |
| 20260504211122 | 25 | 135 | 11.3 | 17.7 | 0.00 | 0.43 | 0.43 | 53 | 990.6 |
| 20260504210122 | 24 | 154 | 11.3 | 24.1 | 0.00 | 0.43 | 0.43 | 52 | 990.6 |
| 20260504205143 | 25 | 154 | 11.3 | 16.1 | 0.00 | 0.43 | 0.43 | 53 | 990.8 |
| 20260504204128 | 23 | 150 | 12.9 | 20.9 | 0.00 | 0.43 | 0.43 | 54 | 990.8 |
| 20260504203122 | 23 | 160 | 9.7 | 19.3 | 0.00 | 0.43 | 0.43 | 54 | 991.0 |
| 20260504202128 | 25 | 157 | 14.5 | 17.7 | 0.00 | 0.43 | 0.43 | 53 | 990.9 |
| 20260504201126 | 23 | 144 | 14.5 | 19.3 | 0.00 | 0.43 | 0.43 | 55 | 990.9 |
| 20260504200143 | 23 | 161 | 14.5 | 22.5 | 0.00 | 0.43 | 0.43 | 57 | 991.2 |
| 20260504195122 | 23 | 160 | 12.9 | 19.3 | 0.00 | 0.43 | 0.43 | 60 | 991.2 |
| 20260504194143 | 21 | 170 | 11.3 | 19.3 | 0.00 | 0.43 | 0.43 | 64 | 991.2 |
| 20260504193125 | 20 | 168 | 11.3 | 17.7 | 0.00 | 0.43 | 0.43 | 66 | 990.7 |
| 20260504192122 | 20 | 145 | 12.9 | 20.9 | 0.13 | 0.43 | 0.43 | 64 | 991.7 |
| 20260504191122 | 19 | 143 | 8.0 | 12.9 | 0.36 | 0.43 | 0.43 | 66 | 992.2 |
| 20260504190126 | 20 | 157 | 9.7 | 19.3 | 0.38 | 0.43 | 0.43 | 64 | 991.9 |
| 20260504185144 | 19 | 153 | 9.7 | 17.7 | 0.41 | 0.43 | 0.43 | 66 | 991.9 |
| 20260504184125 | 18 | 158 | 11.3 | 16.1 | 0.41 | 0.43 | 0.43 | 68 | 992.0 |
| 20260504183122 | 17 | 154 | 9.7 | 14.5 | 0.43 | 0.43 | 0.43 | 71 | 992.0 |
| 20260504182125 | 17 | 160 | 8.0 | 14.5 | 0.33 | 0.33 | 0.33 | 73 | 992.8 |
| 20260504181122 | 17 | 123 | 1.6 | 8.0 | 0.08 | 0.08 | 0.08 | 79 | 993.2 |
| 20260504180143 | 17 | 139 | 0.0 | 3.2 | 0.05 | 0.05 | 0.05 | 75 | 993.2 |
| 20260504175122 | 18 | 145 | 1.6 | 4.8 | 0.03 | 0.03 | 0.03 | 74 | 993.2 |
| 20260504174122 | 18 | 241 | 1.6 | 6.4 | 0.03 | 0.03 | 0.03 | 67 | 993.2 |
| 20260504173126 | 19 | 162 | 3.2 | 8.0 | 0.00 | 0.00 | 0.00 | 64 | 993.2 |
| 20260504172126 | 19 | 204 | 1.6 | 6.4 | 0.00 | 0.00 | 0.00 | 64 | 992.9 |
| 20260504171126 | 20 | 9 | 1.6 | 4.8 | 0.00 | 0.00 | 0.00 | 63 | 993.1 |
| 20260504170122 | 20 | 210 | 6.4 | 11.3 | 0.00 | 0.00 | 0.00 | 60 | 993.1 |
| 20260504160125 | 20 | 183 | 12.9 | 17.7 | 0.00 | 0.00 | 0.00 | 56 | 993.8 |
| 20260504151122 | 21 | 226 | 8.0 | 14.5 | 0.00 | 0.00 | 0.00 | 52 | 994.2 |
| 20260504150125 | 21 | 192 | 8.0 | 14.5 | 0.00 | 0.00 | 0.00 | 52 | 994.2 |
| 20260504141122 | 22 | 186 | 9.7 | 17.7 | 0.00 | 0.00 | 0.00 | 51 | 994.4 |
| 20260504140122 | 21 | 195 | 9.7 | 16.1 | 0.00 | 0.00 | 0.00 | 52 | 994.4 |
| 20260504130122 | 17 | 185 | 8.0 | 12.9 | 0.00 | 0.00 | 0.00 | 65 | 995.1 |
| 20260504120124 | 16 | 174 | 9.7 | 12.9 | 0.00 | 0.00 | 0.00 | 68 | 995.2 |
| 20260504110146 | 16 | 191 | 8.0 | 11.3 | 0.00 | 0.00 | 0.00 | 65 | 995.2 |
| 20260504100122 | 17 | 192 | 8.0 | 12.9 | 0.00 | 0.00 | 0.00 | 62 | 995.2 |
| 20260504090122 | 17 | 185 | 6.4 | 12.9 | 0.00 | 0.00 | 0.00 | 62 | 995.2 |
| 20260504081124 | 18 | 151 | 3.2 | 6.4 | 0.00 | 0.00 | 0.00 | 60 | 995.2 |
| 20260504080122 | 17 | 132 | 3.2 | 8.0 | 0.00 | 0.00 | 0.00 | 61 | 995.2 |
| 20260504070124 | 17 | 141 | 1.6 | 4.8 | 0.00 | 0.00 | 0.00 | 61 | 995.7 |
| 20260504060122 | 18 | 356 | 9.7 | 12.9 | 0.00 | 0.00 | 0.00 | 56 | 996.6 |
| 20260504050122 | 20 | 209 | 9.7 | 19.3 | 0.00 | 0.00 | 0.00 | 51 | 994.8 |
| 20260504045122 | 20 | 214 | 8.0 | 11.3 | 0.00 | 0.00 | 0.00 | 51 | 994.7 |
| 20260504044122 | 20 | 179 | 6.4 | 12.9 | 0.00 | 0.00 | 0.00 | 52 | 994.8 |
| 20260504043123 | 19 | 198 | 4.8 | 8.0 | 0.00 | 0.00 | 0.00 | 53 | 995.4 |
| 20260504042124 | 20 | 177 | 6.4 | 14.5 | 0.00 | 0.00 | 0.00 | 53 | 995.4 |
| 20260504041124 | 20 | 173 | 8.0 | 12.9 | 0.00 | 0.00 | 0.00 | 50 | 995.8 |
| 20260504040122 | 20 | 199 | 8.0 | 11.3 | 0.00 | 0.00 | 0.00 | 49 | 995.8 |
| 20260504035122 | 20 | 198 | 6.4 | 9.7 | 0.00 | 0.00 | 0.00 | 49 | 996.2 |
| 20260504034122 | 20 | 191 | 6.4 | 8.0 | 0.00 | 0.00 | 0.00 | 49 | 996.2 |
| 20260504033122 | 20 | 176 | 6.4 | 8.0 | 0.00 | 0.00 | 0.00 | 49 | 996.2 |
| 20260504032122 | 20 | 175 | 4.8 | 8.0 | 0.00 | 0.00 | 0.00 | 49 | 996.4 |
| 20260504031124 | 20 | 170 | 1.6 | 6.4 | 0.00 | 0.00 | 0.00 | 48 | 996.2 |
| 20260504030124 | 21 | 190 | 4.8 | 8.0 | 0.00 | 0.00 | 0.00 | 46 | 996.2 |
| 20260504025123 | 21 | 188 | 3.2 | 6.4 | 0.00 | 0.00 | 0.00 | 46 | 996.4 |
| 20260504024122 | 21 | 209 | 3.2 | 8.0 | 0.00 | 0.00 | 0.00 | 45 | 996.2 |
| 20260504023122 | 21 | 191 | 4.8 | 9.7 | 0.00 | 0.00 | 0.00 | 44 | 996.1 |
| 20260504022143 | 21 | 178 | 6.4 | 9.7 | 0.00 | 0.00 | 0.00 | 43 | 996.0 |
| 20260504021122 | 21 | 195 | 6.4 | 11.3 | 0.00 | 0.00 | 0.00 | 42 | 995.8 |
| 20260504020122 | 21 | 181 | 6.4 | 12.9 | 0.00 | 0.00 | 0.00 | 42 | 995.8 |
| 20260504015124 | 22 | 180 | 8.0 | 12.9 | 0.00 | 0.00 | 0.00 | 42 | 995.7 |
| 20260504014124 | 22 | 176 | 9.7 | 16.1 | 0.00 | 0.00 | 0.00 | 41 | 995.6 |
| 20260504013123 | 22 | 176 | 8.0 | 11.3 | 0.00 | 0.00 | 0.00 | 40 | 995.6 |
| 20260504012122 | 22 | 191 | 8.0 | 11.3 | 0.00 | 0.00 | 0.00 | 39 | 995.5 |
| 20260504011122 | 23 | 193 | 6.4 | 16.1 | 0.00 | 0.00 | 0.00 | 38 | 995.5 |
| 20260504010143 | 23 | 184 | 6.4 | 11.3 | 0.00 | 0.00 | 0.00 | 38 | 995.5 |
| 20260504005122 | 23 | 214 | 6.4 | 11.3 | 0.00 | 0.00 | 0.00 | 38 | 995.2 |
| 20260504004122 | 24 | 208 | 8.0 | 12.9 | 0.00 | 0.00 | 0.00 | 36 | 995.4 |
| 20260504003145 | 24 | 199 | 8.0 | 12.9 | 0.00 | 0.00 | 0.00 | 36 | 995.4 |
| 20260504002123 | 24 | 222 | 8.0 | 16.1 | 0.00 | 0.00 | 0.00 | 36 | 995.4 |
| 20260504001124 | 25 | 219 | 9.7 | 16.1 | 0.00 | 0.00 | 0.00 | 34 | 995.6 |
| 20260504000122 | 25 | 213 | 11.3 | 17.7 | 0.00 | 0.00 | 0.00 | 33 | 995.6 |
| 20260503235143 | 25 | 231 | 9.7 | 17.7 | 0.00 | 0.00 | 0.00 | 32 | 995.7 |